createdAt,value
2022-11-21T00:00:53.886Z,27.13
2022-11-21T00:03:20.934Z,26.63
2022-11-21T00:05:48.627Z,26.73
2022-11-21T00:08:21.127Z,25.77
2022-11-21T00:10:47.722Z,24.77
2022-11-21T00:13:16.380Z,24.40
2022-11-21T00:15:42.963Z,25.55
2022-11-21T00:18:11.423Z,25.92
2022-11-21T00:20:37.912Z,24.40
2022-11-21T00:23:04.732Z,24.95
2022-11-21T00:25:31.519Z,24.00
2022-11-21T00:27:57.947Z,23.27
2022-11-21T00:30:24.402Z,23.90
2022-11-21T00:32:51.017Z,23.77
2022-11-21T00:35:17.552Z,25.30
2022-11-21T00:37:44.027Z,23.25
2022-11-21T00:40:11.005Z,22.30
2022-11-21T00:42:37.383Z,23.48
2022-11-21T00:45:03.968Z,25.15
2022-11-21T00:47:30.344Z,24.00
2022-11-21T00:49:56.713Z,23.83
2022-11-21T00:52:23.143Z,23.35
2022-11-21T00:54:49.616Z,22.35
2022-11-21T00:57:16.009Z,24.33
2022-11-21T00:59:42.365Z,24.30
2022-11-21T01:02:08.850Z,22.00
2022-11-21T01:04:35.676Z,23.70
2022-11-21T01:07:02.136Z,23.38
2022-11-21T01:09:28.744Z,22.70
2022-11-21T01:11:56.378Z,24.50
2022-11-21T01:14:23.451Z,22.23
2022-11-21T01:16:49.864Z,22.88
2022-11-21T01:19:16.264Z,23.67
2022-11-21T01:21:42.712Z,23.75
2022-11-21T01:24:11.270Z,23.83
2022-11-21T01:26:38.052Z,21.98
2022-11-21T01:29:05.171Z,25.35
2022-11-21T01:31:31.575Z,24.27
2022-11-21T01:33:59.154Z,24.17
2022-11-21T01:36:30.849Z,25.48
2022-11-21T01:38:59.273Z,17.98
2022-11-21T01:41:33.378Z,24.38
2022-11-21T01:44:09.644Z,24.98
2022-11-21T01:46:36.077Z,23.85
2022-11-21T01:49:22.237Z,24.25
2022-11-21T01:51:57.796Z,24.15
2022-11-21T01:54:34.991Z,24.77
2022-11-21T01:57:19.871Z,25.52
2022-11-21T01:59:57.145Z,23.80
2022-11-21T02:02:27.010Z,25.95
2022-11-21T02:04:53.733Z,27.38
2022-11-21T02:07:21.432Z,25.15
2022-11-21T02:09:51.892Z,25.30
2022-11-21T02:12:23.113Z,25.30
2022-11-21T02:14:49.994Z,26.30
2022-11-21T02:17:18.171Z,24.77
2022-11-21T02:19:50.601Z,26.45
2022-11-21T02:22:52.162Z,24.73
2022-11-21T02:25:24.241Z,26.30
2022-11-21T02:27:53.809Z,25.05
2022-11-21T02:30:20.269Z,26.02
2022-11-21T02:32:47.119Z,25.75
2022-11-21T02:35:15.984Z,25.60
2022-11-21T02:37:43.143Z,26.48
2022-11-21T02:40:15.520Z,26.20
2022-11-21T02:42:51.459Z,27.10
2022-11-21T02:45:22.687Z,27.00
2022-11-21T02:47:52.660Z,27.17
2022-11-21T02:50:28.721Z,26.90
2022-11-21T02:52:57.996Z,28.08
2022-11-21T02:55:25.397Z,25.80
2022-11-21T02:57:52.613Z,27.27
2022-11-21T03:00:19.771Z,28.33
2022-11-21T03:02:46.138Z,26.27
2022-11-21T03:05:15.205Z,27.13
2022-11-21T03:07:41.799Z,27.40
2022-11-21T03:10:08.603Z,27.88
2022-11-21T03:12:41.708Z,29.52
2022-11-21T03:15:10.990Z,29.63
2022-11-21T03:17:37.868Z,29.25
2022-11-21T03:20:05.305Z,29.15
2022-11-21T03:22:32.185Z,29.15
2022-11-21T03:24:58.572Z,30.73
2022-11-21T03:27:25.063Z,28.45
2022-11-21T03:29:51.444Z,27.65
2022-11-21T03:32:17.810Z,29.00
2022-11-21T03:34:44.263Z,26.70
2022-11-21T03:37:10.643Z,31.10
2022-11-21T03:39:37.021Z,29.25
2022-11-21T03:42:03.450Z,29.80
2022-11-21T03:44:30.157Z,29.02
2022-11-21T03:46:56.620Z,30.23
2022-11-21T03:49:22.998Z,29.30
2022-11-21T03:51:49.436Z,30.48
2022-11-21T03:54:15.847Z,29.60
2022-11-21T03:56:42.207Z,32.60
2022-11-21T03:59:08.573Z,28.50
2022-11-21T04:01:36.820Z,30.73
2022-11-21T04:04:03.650Z,30.00
2022-11-21T04:06:31.375Z,30.40
2022-11-21T04:08:57.781Z,30.13
2022-11-21T04:11:24.576Z,30.65
2022-11-21T04:13:54.425Z,32.05
2022-11-21T04:16:20.817Z,31.20
2022-11-21T04:18:47.192Z,31.55
2022-11-21T04:21:13.640Z,29.02
2022-11-21T04:23:39.996Z,31.45
2022-11-21T04:26:06.391Z,27.85
2022-11-21T04:28:32.984Z,32.28
2022-11-21T04:31:09.860Z,31.00
2022-11-21T04:33:37.160Z,30.33
2022-11-21T04:36:03.587Z,29.95
2022-11-21T04:38:29.942Z,31.65
2022-11-21T04:40:56.298Z,29.02
2022-11-21T04:43:22.661Z,27.55
2022-11-21T04:45:49.039Z,29.80
2022-11-21T04:48:15.392Z,29.60
2022-11-21T04:50:41.763Z,30.20
2022-11-21T04:53:08.144Z,28.88
2022-11-21T04:55:34.513Z,29.45
2022-11-21T04:58:00.943Z,28.70
2022-11-21T05:00:27.476Z,29.75
2022-11-21T05:02:53.834Z,28.42
2022-11-21T05:05:20.444Z,31.95
2022-11-21T05:07:46.860Z,29.38
2022-11-21T05:10:13.344Z,28.35
2022-11-21T05:12:58.242Z,30.00
2022-11-21T05:15:25.173Z,27.48
2022-11-21T05:17:51.942Z,30.65
2022-11-21T05:20:18.842Z,28.55
2022-11-21T05:22:49.770Z,28.15
2022-11-21T05:25:16.547Z,28.75
2022-11-21T05:27:42.987Z,28.92
2022-11-21T05:30:10.302Z,27.95
2022-11-21T05:32:36.759Z,27.98
2022-11-21T05:37:30.801Z,28.88
2022-11-21T05:39:57.135Z,28.65
2022-11-21T05:42:43.433Z,29.30
2022-11-21T05:45:10.168Z,28.42
2022-11-21T05:47:36.501Z,29.33
2022-11-21T05:50:02.975Z,29.08
2022-11-21T05:52:29.337Z,30.27
2022-11-21T05:54:55.660Z,28.23
2022-11-21T05:57:22.004Z,30.42
2022-11-21T05:59:48.344Z,29.67
2022-11-21T06:02:33.356Z,30.95
2022-11-21T06:04:59.714Z,30.88
2022-11-21T06:07:26.127Z,30.55
2022-11-21T06:09:52.606Z,29.65
2022-11-21T06:12:24.098Z,30.20
2022-11-21T06:14:51.698Z,33.65
2022-11-21T06:17:18.029Z,30.13
2022-11-21T06:19:44.349Z,30.25
2022-11-21T06:22:10.741Z,30.52
2022-11-21T06:24:37.158Z,29.50
2022-11-21T06:27:03.504Z,29.95
2022-11-21T06:29:29.850Z,29.55
2022-11-21T06:31:56.224Z,29.48
2022-11-21T06:34:22.630Z,29.88
2022-11-21T06:36:49.535Z,31.33
2022-11-21T06:39:16.133Z,29.15
2022-11-21T06:41:42.561Z,30.83
2022-11-21T06:44:08.983Z,30.08
2022-11-21T06:46:35.358Z,31.52
2022-11-21T06:49:01.730Z,29.98
2022-11-21T06:51:28.158Z,31.30
2022-11-21T06:53:59.038Z,30.58
2022-11-21T06:56:27.061Z,30.17
2022-11-21T06:58:53.554Z,31.58
2022-11-21T07:01:20.017Z,33.35
2022-11-21T07:03:46.543Z,31.00
2022-11-21T07:06:12.915Z,30.35
2022-11-21T07:08:42.628Z,34.13
2022-11-21T07:11:24.641Z,31.63
2022-11-21T07:16:17.799Z,28.95
2022-11-21T07:18:45.461Z,34.28
2022-11-21T07:21:11.862Z,31.50
2022-11-21T07:23:38.299Z,32.90
2022-11-21T07:26:06.603Z,30.10
2022-11-21T07:28:33.909Z,31.05
2022-11-21T07:31:01.179Z,33.58
2022-11-21T07:33:27.800Z,31.17
2022-11-21T07:35:57.807Z,33.20
2022-11-21T07:38:25.829Z,34.00
2022-11-21T07:40:52.683Z,29.70
2022-11-21T07:43:19.205Z,29.67
2022-11-21T07:45:45.553Z,31.33
2022-11-21T07:48:12.911Z,33.55
2022-11-21T07:50:39.517Z,33.92
2022-11-21T07:53:07.712Z,32.05
2022-11-21T07:55:39.103Z,31.58
2022-11-21T07:58:08.802Z,34.33
2022-11-21T08:00:36.687Z,32.83
2022-11-21T08:03:04.431Z,34.10
2022-11-21T08:05:30.802Z,33.53
2022-11-21T08:07:57.161Z,36.35
2022-11-21T08:10:23.591Z,32.25
2022-11-21T08:12:50.073Z,31.38
2022-11-21T08:15:16.502Z,30.48
2022-11-21T08:17:44.158Z,33.35
2022-11-21T08:20:11.180Z,32.60
2022-11-21T08:22:39.497Z,29.77
2022-11-21T08:25:06.545Z,29.38
2022-11-21T08:27:32.890Z,40.58
2022-11-21T08:29:59.257Z,39.60
2022-11-21T08:32:25.753Z,32.72
2022-11-21T08:34:52.150Z,29.95
2022-11-21T08:37:18.490Z,32.63
2022-11-21T08:39:44.859Z,28.52
2022-11-21T08:42:11.280Z,32.30
2022-11-21T08:44:37.666Z,30.38
2022-11-21T08:47:05.035Z,31.50
2022-11-21T08:49:31.424Z,32.33
2022-11-21T08:51:57.806Z,32.83
2022-11-21T08:54:24.595Z,32.95
2022-11-21T08:56:51.253Z,30.42
2022-11-21T08:59:17.917Z,29.17
2022-11-21T09:01:44.590Z,29.83
2022-11-21T09:04:12.447Z,30.15
2022-11-21T09:06:38.805Z,28.73
2022-11-21T09:09:06.254Z,30.15
2022-11-21T09:11:32.669Z,30.17
2022-11-21T09:14:17.855Z,28.35
2022-11-21T09:17:03.030Z,29.98
2022-11-21T09:19:29.733Z,29.27
2022-11-21T09:21:56.843Z,29.27
2022-11-21T09:24:23.199Z,30.90
2022-11-21T09:26:49.562Z,33.20
2022-11-21T09:29:16.285Z,34.03
2022-11-21T09:31:43.417Z,29.85
2022-11-21T09:34:10.028Z,31.38
2022-11-21T09:36:36.655Z,33.65
2022-11-21T09:39:03.836Z,30.27
2022-11-21T09:41:54.444Z,32.88
2022-11-21T09:44:36.007Z,28.08
2022-11-21T09:47:15.401Z,25.17
2022-11-21T09:49:44.067Z,30.35
2022-11-21T09:52:13.872Z,32.00
2022-11-21T09:54:50.142Z,31.92
2022-11-21T09:57:19.122Z,30.52
2022-11-21T09:59:47.116Z,32.40
2022-11-21T10:02:21.579Z,31.73
2022-11-21T10:04:48.420Z,32.70
2022-11-21T10:07:30.777Z,30.45
2022-11-21T10:12:49.344Z,29.65
2022-11-21T10:15:33.943Z,29.00
2022-11-21T10:18:19.001Z,31.13
2022-11-21T10:20:54.778Z,31.77
2022-11-21T10:23:39.557Z,31.13
2022-11-21T10:26:17.097Z,31.08
2022-11-21T10:28:58.647Z,29.67
2022-11-21T10:31:25.856Z,30.85
2022-11-21T10:33:53.725Z,29.38
2022-11-21T10:36:27.476Z,32.22
2022-11-21T10:38:59.375Z,29.25
2022-11-21T10:41:31.593Z,29.42
2022-11-21T10:46:56.813Z,30.10
2022-11-21T10:49:24.510Z,30.42
2022-11-21T10:52:02.358Z,28.63
2022-11-21T10:54:34.679Z,29.83
2022-11-21T10:57:18.755Z,29.80
2022-11-21T11:00:01.331Z,30.08
2022-11-21T11:02:28.044Z,29.90
2022-11-21T11:05:16.160Z,29.77
2022-11-21T11:07:42.808Z,29.77
2022-11-21T11:10:27.544Z,29.58
2022-11-21T11:13:38.725Z,27.92
2022-11-21T11:16:11.824Z,29.98
2022-11-21T11:18:45.408Z,29.52
2022-11-21T11:21:17.176Z,29.55
2022-11-21T11:23:44.247Z,29.40
2022-11-21T11:26:21.998Z,31.85
2022-11-21T11:28:48.688Z,30.45
2022-11-21T11:31:15.110Z,29.27
2022-11-21T11:33:47.515Z,31.02
2022-11-21T11:36:15.076Z,29.67
2022-11-21T11:39:10.763Z,34.97
2022-11-21T11:42:29.490Z,30.48
2022-11-21T11:45:32.437Z,33.15
2022-11-21T11:48:12.387Z,29.90
2022-11-21T11:50:49.310Z,30.45
2022-11-21T11:53:20.769Z,31.65
2022-11-21T11:55:53.058Z,31.65
2022-11-21T12:01:01.069Z,27.00
2022-11-21T12:03:59.127Z,29.27
2022-11-21T12:07:10.714Z,27.45
2022-11-21T12:09:48.979Z,28.98
2022-11-21T12:12:28.207Z,27.70
2022-11-21T12:15:20.956Z,30.60
2022-11-21T12:18:13.098Z,35.47
2022-11-21T12:20:46.222Z,31.85
2022-11-21T12:23:13.270Z,28.10
2022-11-21T12:25:56.613Z,28.58
2022-11-21T12:28:48.109Z,29.42
2022-11-21T12:31:22.169Z,28.58
2022-11-21T12:33:58.713Z,32.13
2022-11-21T12:36:32.201Z,31.92
2022-11-21T12:39:29.481Z,28.52
2022-11-21T12:42:22.803Z,29.88
2022-11-21T12:45:32.162Z,31.02
2022-11-21T12:48:25.992Z,28.20
2022-11-21T12:51:35.846Z,28.60
2022-11-21T12:54:37.746Z,27.52
2022-11-21T12:57:14.133Z,28.53
2022-11-21T12:59:46.363Z,31.45
2022-11-21T13:04:47.014Z,29.13
2022-11-21T13:07:14.074Z,29.73
2022-11-21T13:09:42.001Z,29.33
2022-11-21T13:12:34.984Z,30.15
2022-11-21T13:15:04.311Z,28.13
2022-11-21T13:17:36.613Z,29.85
2022-11-21T13:20:20.895Z,30.05
2022-11-21T13:22:47.355Z,29.45
2022-11-21T13:25:38.223Z,30.08
2022-11-21T13:28:13.655Z,30.98
2022-11-21T13:30:53.487Z,29.77
2022-11-21T13:33:35.152Z,33.28
2022-11-21T13:36:11.132Z,33.20
2022-11-21T13:38:53.645Z,33.15
2022-11-21T13:41:53.788Z,30.80
2022-11-21T13:44:32.201Z,30.08
2022-11-21T13:47:10.452Z,31.35
2022-11-21T13:49:51.035Z,34.30
2022-11-21T13:52:39.024Z,31.42
2022-11-21T13:55:25.860Z,32.00
2022-11-21T13:58:02.446Z,31.02
2022-11-21T14:00:56.196Z,31.65
2022-11-21T14:03:50.559Z,32.47
2022-11-21T14:06:32.630Z,31.48
2022-11-21T14:11:50.886Z,26.85
2022-11-21T14:14:49.694Z,29.95
2022-11-21T14:17:41.955Z,31.27
2022-11-21T14:20:21.731Z,31.67
2022-11-21T14:23:12.494Z,28.88
2022-11-21T14:25:48.648Z,26.50
2022-11-21T14:28:17.677Z,27.08
2022-11-21T14:30:44.442Z,27.27
2022-11-21T14:33:30.088Z,27.20
2022-11-21T14:35:59.486Z,27.33
2022-11-21T14:38:26.512Z,27.00
2022-11-21T14:41:24.928Z,25.98
2022-11-21T14:43:57.235Z,29.00
2022-11-21T14:48:52.357Z,26.40
2022-11-21T14:51:20.674Z,26.83
2022-11-21T14:53:47.948Z,26.17
2022-11-21T14:56:23.419Z,25.10
2022-11-21T14:58:51.324Z,25.67
2022-11-21T15:01:21.797Z,23.65
2022-11-21T15:03:59.320Z,25.63
2022-11-21T15:06:29.977Z,22.83
2022-11-21T15:10:19.317Z,23.73
2022-11-21T15:12:05.269Z,37.10
2022-11-21T15:14:36.338Z,32.08
2022-11-21T15:17:05.316Z,26.27
2022-11-21T15:19:32.647Z,26.10
2022-11-21T15:22:27.252Z,25.58
2022-11-21T15:25:08.409Z,26.08
2022-11-21T15:27:35.158Z,27.45
2022-11-21T15:30:20.835Z,24.55
2022-11-21T15:33:12.267Z,24.80
2022-11-21T15:35:38.538Z,33.97
2022-11-21T15:38:22.855Z,33.78
2022-11-21T15:41:04.381Z,30.45
2022-11-21T15:43:38.056Z,32.05
2022-11-21T15:46:14.205Z,30.40
2022-11-21T15:48:40.691Z,27.55
2022-11-21T15:51:09.761Z,28.45
2022-11-21T15:53:36.091Z,27.42
2022-11-21T15:56:02.417Z,29.20
2022-11-21T15:58:28.754Z,27.98
2022-11-21T16:00:55.199Z,28.17
2022-11-21T16:03:21.672Z,28.38
2022-11-21T16:05:48.093Z,27.27
2022-11-21T16:08:14.445Z,26.98
2022-11-21T16:10:40.815Z,33.03
2022-11-21T16:13:07.139Z,42.40
2022-11-21T16:15:34.638Z,41.33
2022-11-21T16:18:00.971Z,44.35
2022-11-21T16:20:28.564Z,43.22
2022-11-21T16:22:55.279Z,41.38
2022-11-21T16:25:21.635Z,35.65
2022-11-21T16:27:48.068Z,33.50
2022-11-21T16:30:14.564Z,29.58
2022-11-21T16:32:40.896Z,35.25
2022-11-21T16:35:07.629Z,34.97
2022-11-21T16:37:34.157Z,32.60
2022-11-21T16:40:00.656Z,30.75
2022-11-21T16:42:27.024Z,33.78
2022-11-21T16:44:53.405Z,38.90
2022-11-21T16:47:19.885Z,38.17
2022-11-21T16:49:48.271Z,39.75
2022-11-21T16:52:15.660Z,48.55
2022-11-21T16:54:42.064Z,47.08
2022-11-21T16:57:08.629Z,47.85
2022-11-21T16:59:35.192Z,38.80
2022-11-21T17:02:01.737Z,36.95
2022-11-21T17:04:28.102Z,37.28
2022-11-21T17:06:54.539Z,33.17
2022-11-21T17:09:21.039Z,34.53
2022-11-21T17:11:47.461Z,35.10
2022-11-21T17:14:13.883Z,33.38
2022-11-21T17:16:41.751Z,31.17
2022-11-21T17:19:10.873Z,31.10
2022-11-21T17:21:37.283Z,29.45
2022-11-21T17:24:03.669Z,30.05
2022-11-21T17:26:30.240Z,27.95
2022-11-21T17:28:58.868Z,27.70
2022-11-21T17:31:25.514Z,24.73
2022-11-21T17:33:52.294Z,24.08
2022-11-21T17:36:21.232Z,21.85
2022-11-21T17:38:47.897Z,23.20
2022-11-21T17:41:16.689Z,21.48
2022-11-21T17:43:43.810Z,22.17
2022-11-21T17:46:16.813Z,22.65
2022-11-21T17:48:43.855Z,23.63
2022-11-21T17:51:15.816Z,24.00
2022-11-21T17:53:44.105Z,23.13
2022-11-21T17:56:13.770Z,23.67
2022-11-21T17:58:40.377Z,25.27
2022-11-21T18:01:08.012Z,29.73
2022-11-21T18:03:35.592Z,31.40
2022-11-21T18:06:04.429Z,32.92
2022-11-21T18:08:44.963Z,33.22
2022-11-21T18:11:12.742Z,30.88
2022-11-21T18:13:39.602Z,31.52
2022-11-21T18:16:09.067Z,30.10
2022-11-21T18:18:36.053Z,27.38
2022-11-21T18:21:13.386Z,24.95
2022-11-21T18:23:40.117Z,23.65
2022-11-21T18:26:09.580Z,24.08
2022-11-21T18:28:36.010Z,22.80
2022-11-21T18:31:09.344Z,23.83
2022-11-21T18:33:36.602Z,28.70
2022-11-21T18:36:04.300Z,22.60
2022-11-21T18:38:48.208Z,21.73
2022-11-21T18:41:20.781Z,19.08
2022-11-21T18:43:55.131Z,18.25
2022-11-21T18:46:23.356Z,17.88
2022-11-21T18:49:04.141Z,19.02
2022-11-21T18:51:31.932Z,20.10
2022-11-21T18:53:59.969Z,21.50
2022-11-21T18:56:26.638Z,21.13
2022-11-21T18:58:58.315Z,22.00
2022-11-21T19:01:27.597Z,21.05
2022-11-21T19:03:55.670Z,20.83
2022-11-21T19:06:23.485Z,21.15
2022-11-21T19:08:52.997Z,22.67
2022-11-21T19:11:20.872Z,21.08
2022-11-21T19:13:47.886Z,22.30
2022-11-21T19:16:18.924Z,24.48
2022-11-21T19:18:59.903Z,26.20
2022-11-21T19:21:35.399Z,25.33
2022-11-21T19:24:01.802Z,24.00
2022-11-21T19:26:29.026Z,27.02
2022-11-21T19:28:55.396Z,28.23
2022-11-21T19:31:21.798Z,33.58
2022-11-21T19:33:48.156Z,37.95
2022-11-21T19:36:22.155Z,32.65
2022-11-21T19:38:50.934Z,30.23
2022-11-21T19:41:20.735Z,31.05
2022-11-21T19:43:49.477Z,30.20
2022-11-21T19:46:21.119Z,32.83
2022-11-21T19:48:52.318Z,29.30
2022-11-21T19:51:19.933Z,29.60
2022-11-21T19:53:46.884Z,28.63
2022-11-21T19:56:17.415Z,26.38
2022-11-21T19:58:44.867Z,26.25
2022-11-21T20:01:15.408Z,25.33
2022-11-21T20:03:45.208Z,21.75
2022-11-21T20:06:20.048Z,20.75
2022-11-21T20:08:55.500Z,20.10
2022-11-21T20:11:23.016Z,20.95
2022-11-21T20:13:50.470Z,21.08
2022-11-21T20:16:23.088Z,21.33
2022-11-21T20:18:50.436Z,22.15
2022-11-21T20:21:17.706Z,19.15
2022-11-21T20:23:46.086Z,25.83
2022-11-21T20:26:13.775Z,25.23
2022-11-21T20:28:40.345Z,24.73
2022-11-21T20:31:09.583Z,23.58
2022-11-21T20:33:37.521Z,26.90
2022-11-21T20:36:05.854Z,25.45
2022-11-21T20:38:32.213Z,22.85
2022-11-21T20:40:58.631Z,24.80
2022-11-21T20:43:33.389Z,26.42
2022-11-21T20:46:17.010Z,16.73
2022-11-21T20:48:46.514Z,18.00
2022-11-21T20:54:03.297Z,16.27
2022-11-21T20:56:33.338Z,17.45
2022-11-21T20:58:59.900Z,17.55
2022-11-21T21:01:27.626Z,17.63
2022-11-21T21:03:54.282Z,15.80
2022-11-21T21:06:21.039Z,15.95
2022-11-21T21:08:50.001Z,15.45
2022-11-21T21:11:44.476Z,19.17
2022-11-21T21:14:04.727Z,18.38
2022-11-21T21:16:34.255Z,15.27
2022-11-21T21:19:00.628Z,15.07
2022-11-21T21:21:28.353Z,12.38
2022-11-21T21:23:56.210Z,12.05
2022-11-21T21:26:25.619Z,12.38
2022-11-21T21:28:52.462Z,18.48
2022-11-21T21:31:20.595Z,12.85
2022-11-21T21:33:47.185Z,12.88
2022-11-21T21:36:18.747Z,13.80
2022-11-21T21:38:45.736Z,10.52
2022-11-21T21:41:13.788Z,12.40
2022-11-21T21:43:40.975Z,13.02
2022-11-21T21:46:08.008Z,12.00
2022-11-21T21:48:34.703Z,14.38
2022-11-21T21:51:03.309Z,16.60
2022-11-21T21:53:30.046Z,14.93
2022-11-21T21:56:00.634Z,11.93
2022-11-21T21:58:30.275Z,13.30
2022-11-21T22:01:10.994Z,12.18
2022-11-21T22:03:37.959Z,12.85
2022-11-21T22:06:05.732Z,11.57
2022-11-21T22:08:33.553Z,11.60
2022-11-21T22:11:07.332Z,11.15
2022-11-21T22:13:34.604Z,12.27
2022-11-21T22:16:01.634Z,11.77
2022-11-21T22:18:28.824Z,11.82
2022-11-21T22:20:55.525Z,11.23
2022-11-21T22:23:22.213Z,11.77
2022-11-21T22:25:48.975Z,14.32
2022-11-21T22:28:15.649Z,30.40
2022-11-21T22:30:42.091Z,24.80
2022-11-21T22:33:08.452Z,10.73
2022-11-21T22:35:34.926Z,12.52
2022-11-21T22:38:01.291Z,10.07
2022-11-21T22:40:27.684Z,9.57
2022-11-21T22:42:54.037Z,6.60
2022-11-21T22:45:20.387Z,6.82
2022-11-21T22:47:48.250Z,6.30
2022-11-21T22:50:15.451Z,4.20
2022-11-21T22:52:41.874Z,3.95
2022-11-21T22:55:08.701Z,3.53
2022-11-21T22:57:35.087Z,3.95
2022-11-21T23:00:02.145Z,2.65
2022-11-21T23:02:28.515Z,2.78
2022-11-21T23:04:54.908Z,3.03
2022-11-21T23:07:21.344Z,2.55
2022-11-21T23:09:47.726Z,2.45
2022-11-21T23:12:14.143Z,2.95
2022-11-21T23:14:40.481Z,3.35
2022-11-21T23:17:06.833Z,2.50
2022-11-21T23:19:33.192Z,3.05
2022-11-21T23:21:59.614Z,2.40
2022-11-21T23:24:25.949Z,2.60
2022-11-21T23:26:52.383Z,2.40
2022-11-21T23:29:18.730Z,2.60
2022-11-21T23:31:45.091Z,2.35
2022-11-21T23:34:11.645Z,2.78
2022-11-21T23:36:38.058Z,2.35
2022-11-21T23:39:04.803Z,2.60
2022-11-21T23:41:31.190Z,2.50
2022-11-21T23:43:59.675Z,2.50
2022-11-21T23:46:27.477Z,2.03
2022-11-21T23:48:53.872Z,2.28
2022-11-21T23:51:20.274Z,2.40
2022-11-21T23:53:46.792Z,2.63
2022-11-21T23:56:13.259Z,2.60
2022-11-21T23:58:39.674Z,2.50
